GMTAGMFK

Guest
Details From GMTA - CHERIF EL IDRISSI
To GMFK - MOULAY ALI CHERIF
Flight Number -
Tags generated
Created
Modified
Stats Distance 222 nm / 411 km
Max Altitude 27,200 ft / 8,291 m
Waypoints 4
Social Downloads 0
Likes 0
Share VATSIM

Download

Looking for another format? Having issues loading an existing format? Contact us
Advertisement - Login to hide

Notes

Basic altitude profile: - Ascent Rate: 2500ft/min - Ascent Speed: 250kts - Cruise Altitude: 4000ft - Cruise Speed: 420kts - Descent Rate: 1500ft/min - Descent Speed: 250kts Options: - Use NATs: yes - Use PACOTS: yes - Use low airways: yes - Use high airways: no

Route

GMTA FES W240F ERA GMFK

ID Type Via Altitude (ft/m) Position (lat/lon) Dist (leg/tot) Name
O GMTA APT - 0 / 0 35.17730 / -3.83956 - / 0 nm CHERIF EL IDRISSI
FES VOR - 27,200 / 8,291 33.92750 / -5.01361 94 / 94 nm SAISS VOR-DME
ERA VOR W240F (AWY-LO) 500 / 152 31.92417 / -4.36056 124 / 219 nm ERRACHIDIA VOR-DME
O GMFK APT - 0 / 0 31.94825 / -4.40096 2 / 222 nm MOULAY ALI CHERIF

Altitude Profile

Advertisement - Login to hide

Weather


0- 5 10 15 20 25 30 35+ Temperature / °C

Clouds and Precipitation
Forecast for 2018-10-20 12:00 UTC. Updated 6 hours ago

Ground ~20,000 ft ~40,000 ft Winds

GMTA

Details ICAO GMTA (AHU)
Name CHERIF EL IDRISSI
Region Morocco
Timezone Africa/Casablanca (UTC+1.0)
Stats Elevation 95 ft / 29 m (AMSL)
Location 35.177300° -3.839560°
Runways 1
Magnetic Variation 0.602° W

METAR

GMTA 201500Z 34006KT 9999 FEW020TCU SCT100 21/16 Q1013 NOSIG

Decode

TAF

TAF GMTA 201100Z 2012/2118 35006KT 9999 FEW020TCU FEW030 FEW033CB SCT100 PROB30 TEMPO 2012/2016 6000 -TSRA FEW013TCU SCT020 FEW030CB

Decode

Departure Runways

ID Width Length Bearing (true/mag) Surface Threshold Overrun Markings Lighting
18 148 ft / 45 m 8,234 ft / 2,510 m 172.65° / 173.25° ASPHALT 0 ft / 0 m 0 ft / 0 m APP EDGE THRESHOLD
36 148 ft / 45 m 8,234 ft / 2,510 m 352.65° / 353.25° ASPHALT 0 ft / 0 m 0 ft / 0 m APP EDGE THRESHOLD

GMFK

Details ICAO GMFK (ERH)
Name MOULAY ALI CHERIF
Region Morocco
Timezone Africa/Casablanca (UTC+1.0)
Stats Elevation 3,428 ft / 1,045 m (AMSL)
Location 31.948300° -4.400950°
Runways 1
Magnetic Variation 0.833° W

METAR

GMFK 201500Z 20009KT 170V250 9999 FEW026 25/M01 Q1016 NOSIG

Decode

TAF

Not found

Destination Runways

ID Width Length Bearing (true/mag) Surface Threshold Overrun Markings Lighting
13 148 ft / 45 m 10,576 ft / 3,224 m 125.08° / 125.91° ASPHALT 0 ft / 0 m 0 ft / 0 m APP EDGE THRESHOLD
31 148 ft / 45 m 10,576 ft / 3,224 m 305.10° / 305.93° ASPHALT 0 ft / 0 m 0 ft / 0 m APP EDGE THRESHOLD

Popular Alternatives